Time;durP1;ratioP1;P1;durP2;ratioP2;P2;SDS_P1;SDS_P2;PMS_P1;PMS_P2;Temp;Humidity;BMP_temperature;BMP_pressure;BME280_temperature;BME280_humidity;BME280_pressure;Samples;Min_cycle;Max_cycle;Signal;HPM_P1;HPM_P2
2021/12/24 00:00:42;;;;;;;41.22;12.88;;;7.50;99.90;;;;;;5012191;28;20041;-80
2021/12/24 00:03:09;;;;;;;39.83;12.68;;;7.70;99.90;;;;;;5014087;28;20111;-79
2021/12/24 00:05:35;;;;;;;38.53;13.25;;;7.50;99.90;;;;;;5031723;28;20111;-80
2021/12/24 00:08:01;;;;;;;32.20;12.27;;;7.50;99.90;;;;;;5032230;28;20091;-79
2021/12/24 00:10:27;;;;;;;;;;;7.50;99.90;;;;;;5032819;28;20053;-79
2021/12/24 00:12:59;;;;;;;48.90;14.63;;;7.50;99.90;;;;;;5032255;28;19921;-79
2021/12/24 00:17:54;;;;;;;;;;;7.50;99.90;;;;;;5016718;28;20049;-79
2021/12/24 00:21:20;;;;;;;31.33;11.80;;;7.50;99.90;;;;;;5014021;28;20403;-80
2021/12/24 00:37:11;;;;;;;22.95;9.63;;;7.40;99.90;;;;;;5031244;28;20045;-79
2021/12/24 00:39:45;;;;;;;18.65;8.20;;;7.40;99.90;;;;;;5011499;28;20042;-78
2021/12/24 00:42:11;;;;;;;19.98;8.55;;;7.50;99.90;;;;;;5011372;28;20081;-78
2021/12/24 00:44:37;;;;;;;23.10;9.25;;;7.50;99.90;;;;;;5029179;28;20091;-78
2021/12/24 00:47:09;;;;;;;;;;;7.50;99.90;;;;;;5031071;28;20041;-78
2021/12/24 00:49:35;;;;;;;22.80;9.35;;;7.90;99.90;;;;;;5031528;28;19921;-78
2021/12/24 00:52:18;;;;;;;;;;;7.60;99.90;;;;;;5015102;28;20052;-78
2021/12/24 00:55:06;;;;;;;22.65;9.40;;;7.50;99.90;;;;;;5030326;28;20019;-77
2021/12/24 00:57:37;;;;;;;20.08;8.45;;;7.50;99.90;;;;;;5010511;28;20068;-77
2021/12/24 01:00:25;;;;;;;19.27;8.05;;;7.60;99.90;;;;;;5016486;28;20085;-77
2021/12/24 01:02:59;;;;;;;15.85;7.75;;;7.60;99.90;;;;;;5030053;28;20107;-77
2021/12/24 01:05:27;;;;;;;19.25;8.07;;;7.60;99.90;;;;;;5011097;28;20037;-77
2021/12/24 01:07:53;;;;;;;19.50;9.02;;;7.60;99.90;;;;;;5015317;28;20049;-77
2021/12/24 01:10:23;;;;;;;19.13;7.90;;;7.60;99.90;;;;;;5028905;28;20049;-77
2021/12/24 01:12:49;;;;;;;16.25;7.97;;;8.40;99.90;;;;;;5012129;28;20054;-77
2021/12/24 01:15:15;;;;;;;;;;;7.60;99.90;;;;;;5012640;28;20037;-77
2021/12/24 01:21:09;;;;;;;19.40;9.38;;;7.60;99.90;;;;;;5031548;28;20401;-77
2021/12/24 01:23:27;;;;;;;18.00;8.95;;;7.70;99.90;;;;;;4997822;28;20038;-78
2021/12/24 01:26:01;;;;;;;15.95;8.60;;;7.70;99.90;;;;;;5013346;28;20119;-77
2021/12/24 01:44:57;;;;;;;19.45;8.95;;;7.70;99.90;;;;;;5034521;28;20098;-78
2021/12/24 01:47:23;;;;;;;19.25;9.05;;;7.70;99.90;;;;;;5013210;28;20088;-78
2021/12/24 01:49:49;;;;;;;;;;;7.70;99.90;;;;;;5014312;28;20139;-78
2021/12/24 01:52:17;;;;;;;25.15;10.45;;;7.70;99.90;;;;;;5013270;28;19921;-78
2021/12/24 01:54:44;;;;;;;25.90;10.23;;;7.70;99.90;;;;;;5016320;28;20076;-78
2021/12/24 01:57:26;;;;;;;28.30;9.65;;;7.70;99.90;;;;;;5017760;28;20386;-78
2021/12/24 01:59:55;;;;;;;21.27;9.23;;;7.70;99.90;;;;;;5013541;28;20115;-78
2021/12/24 02:02:21;;;;;;;25.77;9.88;;;7.70;99.90;;;;;;5016980;28;20385;-78
2021/12/24 02:04:46;;;;;;;;;;;7.60;99.90;;;;;;5035474;28;20060;-78
2021/12/24 02:07:12;;;;;;;21.25;8.73;;;7.70;99.90;;;;;;5033946;28;20265;-78
2021/12/24 02:09:41;;;;;;;27.25;8.95;;;7.70;99.90;;;;;;5017315;28;20416;-77
2021/12/24 02:12:09;;;;;;;;;;;7.70;99.90;;;;;;5035171;28;20053;-77
2021/12/24 02:14:37;;;;;;;23.67;8.63;;;7.70;99.90;;;;;;5017135;28;19964;-78
2021/12/24 02:17:31;;;;;;;25.00;9.57;;;7.70;99.90;;;;;;5017333;28;20120;-78
2021/12/24 02:28:36;;;;;;;27.80;9.80;;;7.70;99.90;;;;;;5029685;28;20489;-78
2021/12/24 02:31:03;;;;;;;30.35;9.48;;;7.70;99.90;;;;;;5034650;28;20046;-78
2021/12/24 02:33:29;;;;;;;36.75;11.18;;;7.70;99.90;;;;;;5016483;28;20061;-79
2021/12/24 02:35:55;;;;;;;;;;;7.70;99.90;;;;;;5017388;28;20041;-78
2021/12/24 02:38:20;;;;;;;30.90;10.23;;;7.70;99.90;;;;;;5016717;28;19921;-79
2021/12/24 02:40:49;;;;;;;31.23;10.05;;;7.70;99.90;;;;;;5016914;28;20206;-79
2021/12/24 02:43:20;;;;;;;30.67;10.40;;;7.70;99.90;;;;;;5015995;28;20077;-79
2021/12/24 02:45:56;;;;;;;31.30;10.30;;;7.70;99.90;;;;;;5017338;28;20124;-79
2021/12/24 02:56:17;;;;;;;31.23;11.48;;;7.80;99.90;;;;;;5030508;28;20050;-78
2021/12/24 02:58:44;;;;;;;;;;;7.80;99.90;;;;;;5017042;28;20469;-79
2021/12/24 03:01:12;;;;;;;22.80;9.05;;;7.80;99.90;;;;;;5018605;28;19925;-79
2021/12/24 03:03:38;;;;;;;29.08;10.15;;;7.80;99.90;;;;;;5030703;28;20065;-78
2021/12/24 03:06:06;;;;;;;29.38;9.65;;;7.80;99.90;;;;;;5035017;28;20044;-78
2021/12/24 03:08:33;;;;;;;27.05;11.07;;;7.80;99.90;;;;;;5016144;28;20037;-78
2021/12/24 03:11:02;;;;;;;30.85;10.23;;;7.90;99.90;;;;;;5034547;28;20045;-79
2021/12/24 03:13:28;;;;;;;28.02;11.32;;;7.90;99.90;;;;;;5017334;28;20053;-78
2021/12/24 03:15:57;;;;;;;32.92;11.20;;;7.90;99.90;;;;;;5017151;28;20511;-79
2021/12/24 03:18:34;;;;;;;32.05;10.98;;;7.90;99.90;;;;;;5016588;28;20046;-79
2021/12/24 03:21:13;;;;;;;28.60;10.73;;;7.90;99.90;;;;;;5034503;28;20081;-79
2021/12/24 03:23:42;;;;;;;31.45;12.63;;;7.90;99.90;;;;;;5030804;28;20128;-78
2021/12/24 03:26:11;;;;;;;37.75;13.10;;;7.90;99.90;;;;;;5016367;28;20038;-78
2021/12/24 03:28:42;;;;;;;37.28;13.55;;;7.90;99.90;;;;;;5031771;28;20204;-79
2021/12/24 03:31:08;;;;;;;37.63;14.23;;;7.90;99.90;;;;;;5015858;28;20111;-78
2021/12/24 03:33:36;;;;;;;33.08;13.93;;;7.90;99.90;;;;;;5015913;28;20053;-78
2021/12/24 03:36:04;;;;;;;33.50;13.15;;;7.90;99.90;;;;;;5016668;28;20045;-79
2021/12/24 03:38:33;;;;;;;33.78;14.02;;;7.90;99.90;;;;;;5015385;28;20046;-77
2021/12/24 03:40:59;;;;;;;29.92;13.57;;;7.90;99.90;;;;;;5016924;28;20385;-76
2021/12/24 03:43:25;;;;;;;;;;;7.90;99.90;;;;;;5016406;28;20088;-76
2021/12/24 03:48:27;;;;;;;33.10;12.80;;;8.00;99.90;;;;;;5034019;28;20045;-77
2021/12/24 03:51:21;;;;;;;34.83;12.68;;;8.00;99.90;;;;;;5017254;28;20050;-78
2021/12/24 03:56:34;;;;;;;32.97;11.27;;;8.00;99.90;;;;;;5030334;28;20049;-78
2021/12/24 03:59:00;;;;;;;27.27;11.35;;;8.10;99.90;;;;;;5016598;28;20041;-77
2021/12/24 04:01:25;;;;;;;;;;;8.00;99.90;;;;;;5015982;28;20388;-78
2021/12/24 04:03:54;;;;;;;30.27;11.43;;;8.10;99.90;;;;;;5033357;28;20403;-78
2021/12/24 04:06:19;;;;;;;26.00;10.70;;;8.10;99.90;;;;;;5015197;28;20400;-77
2021/12/24 04:08:45;;;;;;;;;;;8.10;99.90;;;;;;5016287;28;20033;-77
2021/12/24 04:11:11;;;;;;;28.85;11.80;;;8.10;99.90;;;;;;5015198;28;20304;-77
2021/12/24 04:13:36;;;;;;;;;;;8.10;99.90;;;;;;5015721;28;20053;-77
2021/12/24 04:16:03;;;;;;;30.60;10.70;;;8.10;99.90;;;;;;5032750;28;19924;-77
2021/12/24 04:26:27;;;;;;;30.42;11.23;;;8.10;99.90;;;;;;5015746;28;20103;-77
2021/12/24 04:28:53;;;;;;;;;;;8.10;99.90;;;;;;5019728;28;20065;-77
2021/12/24 04:31:28;;;;;;;28.63;11.50;;;8.10;99.90;;;;;;5015234;28;20388;-78
2021/12/24 04:33:58;;;;;;;31.95;10.43;;;8.10;99.90;;;;;;5011692;28;20037;-77
2021/12/24 05:03:13;;;;;;;26.88;7.72;;;8.10;99.90;;;;;;5014178;28;20045;-77
2021/12/24 05:05:48;;;;;;;25.15;8.20;;;8.10;99.90;;;;;;5014461;28;20041;-78
2021/12/24 05:08:23;;;;;;;22.23;6.93;;;8.10;99.90;;;;;;5014360;28;20513;-77
2021/12/24 05:11:01;;;;;;;19.55;6.60;;;8.10;99.90;;;;;;5014296;28;20041;-78
2021/12/24 05:13:26;;;;;;;37.83;7.13;;;8.10;99.90;;;;;;5012271;28;20084;-77
2021/12/24 05:16:02;;;;;;;;;;;8.10;99.90;;;;;;5014895;28;20057;-77
2021/12/24 05:21:36;;;;;;;31.70;6.93;;;8.10;99.90;;;;;;4995052;28;20074;-78
2021/12/24 05:24:07;;;;;;;20.25;6.70;;;8.10;99.90;;;;;;5031339;28;20052;-77
2021/12/24 05:26:37;;;;;;;24.45;6.63;;;8.10;99.90;;;;;;5013786;28;20057;-77
2021/12/24 05:29:04;;;;;;;23.77;6.53;;;8.10;99.90;;;;;;5035554;28;20140;-78
2021/12/24 05:31:30;;;;;;;22.00;6.95;;;8.10;99.90;;;;;;5035116;28;20087;-78
2021/12/24 05:33:56;;;;;;;29.65;6.45;;;8.10;99.90;;;;;;5018817;28;20114;-77
2021/12/24 05:36:22;;;;;;;;;;;8.10;99.90;;;;;;5018731;28;20484;-77
2021/12/24 05:38:47;;;;;;;43.33;7.95;;;8.10;99.90;;;;;;5017922;28;19924;-77
2021/12/24 05:41:13;;;;;;;;;;;8.10;99.90;;;;;;5018639;28;20049;-77
2021/12/24 05:43:42;;;;;;;22.05;6.75;;;8.00;99.90;;;;;;5018403;28;19921;-77
2021/12/24 05:46:07;;;;;;;22.20;6.28;;;8.00;99.90;;;;;;5018061;28;20037;-78
2021/12/24 05:48:33;;;;;;;;;;;8.10;99.90;;;;;;5018228;28;20180;-78
2021/12/24 05:50:59;;;;;;;22.30;6.55;;;8.10;99.90;;;;;;5018422;28;19928;-78
2021/12/24 05:53:25;;;;;;;20.38;6.13;;;8.00;99.90;;;;;;5016844;28;20045;-78
2021/12/24 05:55:51;;;;;;;23.77;6.53;;;8.10;99.90;;;;;;5035248;28;20123;-79
2021/12/24 05:58:18;;;;;;;;;;;8.10;99.90;;;;;;5017172;28;20101;-78
2021/12/24 06:00:48;;;;;;;17.77;5.70;;;8.00;99.90;;;;;;5034943;28;19921;-78
2021/12/24 06:03:14;;;;;;;14.88;5.22;;;8.00;99.90;;;;;;5017418;28;20041;-78
2021/12/24 06:05:40;;;;;;;17.85;5.75;;;8.00;99.90;;;;;;5018100;28;20050;-78
2021/12/24 06:08:06;;;;;;;20.38;5.53;;;8.00;99.90;;;;;;5018052;28;20060;-78
2021/12/24 06:10:35;;;;;;;;;;;8.00;99.90;;;;;;5017732;28;20489;-78
2021/12/24 06:13:02;;;;;;;24.00;6.00;;;8.00;99.90;;;;;;5034248;28;19929;-78
2021/12/24 06:15:28;;;;;;;22.17;6.35;;;8.00;99.90;;;;;;5017567;28;21516;-77
2021/12/24 06:17:56;;;;;;;;;;;8.00;99.90;;;;;;5017280;28;20052;-78
2021/12/24 06:20:26;;;;;;;17.48;6.47;;;8.00;99.90;;;;;;5021290;28;19921;-78
2021/12/24 06:22:52;;;;;;;21.02;5.97;;;7.90;99.90;;;;;;5033452;28;20088;-78
2021/12/24 06:25:18;;;;;;;;;;;7.90;99.90;;;;;;5058971;28;20041;-77
2021/12/24 06:27:47;;;;;;;22.23;6.18;;;7.90;99.90;;;;;;5034386;28;19997;-78
2021/12/24 06:30:14;;;;;;;21.10;5.35;;;7.80;99.90;;;;;;5033110;28;20037;-78
2021/12/24 06:32:43;;;;;;;19.45;5.30;;;8.60;99.90;;;;;;5033164;28;20381;-78
2021/12/24 06:35:09;;;;;;;23.70;6.25;;;7.80;99.90;;;;;;5032333;28;20046;-78
2021/12/24 06:37:37;;;;;;;18.55;5.72;;;7.80;99.90;;;;;;5033871;28;20432;-78
2021/12/24 06:40:09;;;;;;;22.15;5.82;;;7.90;99.90;;;;;;5032264;28;20048;-76
2021/12/24 06:42:35;;;;;;;18.30;4.97;;;7.80;99.90;;;;;;5031756;28;20107;-78
2021/12/24 06:45:01;;;;;;;;;;;7.90;99.90;;;;;;5034187;28;20046;-79
2021/12/24 06:47:30;;;;;;;28.17;5.47;;;7.90;99.90;;;;;;5032182;28;19921;-78
2021/12/24 06:49:56;;;;;;;;;;;7.90;99.90;;;;;;5031817;28;20104;-78
2021/12/24 06:52:21;;;;;;;22.50;4.88;;;7.90;99.90;;;;;;5032903;28;19921;-78
2021/12/24 06:54:47;;;;;;;;;;;7.90;99.90;;;;;;5033634;28;20037;-78
2021/12/24 06:57:15;;;;;;;19.13;5.20;;;7.90;99.90;;;;;;5031943;28;19921;-78
2021/12/24 06:59:41;;;;;;;18.67;5.82;;;7.90;99.90;;;;;;5032286;28;20115;-78
2021/12/24 07:02:06;;;;;;;;;;;7.90;99.90;;;;;;5032917;28;20095;-79
2021/12/24 07:04:32;;;;;;;14.20;5.72;;;7.90;99.90;;;;;;5031874;28;20408;-78
2021/12/24 07:06:57;;;;;;;;;;;7.90;99.90;;;;;;5032566;28;20052;-79
2021/12/24 07:09:26;;;;;;;16.00;4.20;;;7.90;99.90;;;;;;5032224;28;20280;-79
2021/12/24 07:11:52;;;;;;;24.20;5.53;;;7.80;99.90;;;;;;5032182;28;20049;-79
2021/12/24 07:14:22;;;;;;;;;;;7.90;99.90;;;;;;5032675;28;20382;-79
2021/12/24 07:16:48;;;;;;;20.83;4.43;;;8.80;99.90;;;;;;5033258;28;19948;-79
2021/12/24 07:19:14;;;;;;;;;;;7.90;99.90;;;;;;5032360;28;20124;-78
2021/12/24 07:21:41;;;;;;;18.52;5.22;;;8.40;99.90;;;;;;5033719;28;20361;-79
2021/12/24 07:24:09;;;;;;;17.13;3.95;;;7.90;99.90;;;;;;5015338;28;20037;-78
2021/12/24 07:26:35;;;;;;;;;;;7.90;99.90;;;;;;5016172;28;20040;-78
2021/12/24 07:29:01;;;;;;;20.30;4.57;;;7.90;99.90;;;;;;5016772;28;20308;-78
2021/12/24 07:31:26;;;;;;;;;;;7.90;99.90;;;;;;5028086;28;20055;-78
2021/12/24 07:33:52;;;;;;;22.92;4.53;;;7.80;99.90;;;;;;5014984;28;20299;-78
2021/12/24 07:36:18;;;;;;;;;;;7.80;99.90;;;;;;5015040;28;20091;-77
2021/12/24 07:38:43;;;;;;;14.23;4.82;;;7.80;99.90;;;;;;5014324;28;20360;-78
2021/12/24 07:41:09;;;;;;;;;;;7.80;99.90;;;;;;5015566;28;20495;-79
2021/12/24 07:43:40;;;;;;;19.80;5.32;;;7.80;99.90;;;;;;5015328;28;20003;-78
2021/12/24 07:46:05;;;;;;;16.30;4.60;;;8.70;99.90;;;;;;5016014;28;20071;-78
2021/12/24 07:48:33;;;;;;;;;;;7.80;99.90;;;;;;5015459;28;20073;-76
2021/12/24 07:53:28;;;;;;;20.50;4.85;;;7.80;99.90;;;;;;5014619;28;20295;-83
2021/12/24 07:55:56;;;;;;;73.72;14.18;;;7.70;99.90;;;;;;5014621;28;20073;-80
2021/12/24 07:58:22;;;;;;;19.17;4.57;;;7.70;99.90;;;;;;5013883;28;20103;-78
2021/12/24 08:00:47;;;;;;;;;;;7.70;99.90;;;;;;5015511;28;20042;-79
2021/12/24 08:03:16;;;;;;;17.17;4.65;;;7.70;99.90;;;;;;5014585;28;19921;-76
2021/12/24 08:05:42;;;;;;;17.85;4.90;;;7.70;99.90;;;;;;5014129;28;20397;-78
2021/12/24 08:08:08;;;;;;;;;;;7.70;99.90;;;;;;5015617;28;20071;-83
2021/12/24 08:10:34;;;;;;;22.00;5.55;;;7.80;99.90;;;;;;5014633;28;20074;-77
2021/12/24 08:13:07;;;;;;;26.33;5.95;;;7.70;99.90;;;;;;5013970;28;20527;-77
2021/12/24 08:15:33;;;;;;;14.70;5.20;;;7.70;99.90;;;;;;5010319;28;20417;-79
2021/12/24 08:17:58;;;;;;;;;;;7.70;99.90;;;;;;5015972;28;20041;-79
2021/12/24 08:20:33;;;;;;;19.05;6.22;;;7.70;99.90;;;;;;5016230;28;19921;-77
2021/12/24 08:22:59;;;;;;;19.30;5.57;;;7.70;99.90;;;;;;5031043;28;20041;-75
2021/12/24 08:25:25;;;;;;;;;;;7.70;99.90;;;;;;5030791;28;20051;-78
2021/12/24 08:28:14;;;;;;;13.93;5.03;;;7.70;99.90;;;;;;5115353;23;20309;-77
2021/12/24 08:30:44;;;;;;;15.63;4.80;;;7.40;99.90;;;;;;4972032;28;20453;-79
2021/12/24 08:36:19;;;;;;;62.17;12.68;;;7.70;99.90;;;;;;4969596;28;20053;-78
2021/12/24 08:43:21;;;;;;;12.02;3.85;;;8.60;99.90;;;;;;4981690;28;20042;-77
2021/12/24 09:32:25;;;;;;;4.55;1.60;;;7.80;99.90;;;;;;5474074;23;20048;-85
2021/12/24 09:34:51;;;;;;;6.50;1.70;;;7.80;99.90;;;;;;4888479;29;20044;-80
2021/12/24 09:37:17;;;;;;;4.20;1.67;;;7.80;99.90;;;;;;4888212;29;20092;-77
2021/12/24 09:39:43;;;;;;;;;;;7.70;99.90;;;;;;4889715;29;20048;-77
2021/12/24 09:42:09;;;;;;;3.78;1.65;;;7.70;99.90;;;;;;4887631;29;19926;-77
2021/12/24 09:44:35;;;;;;;6.50;1.80;;;7.70;99.90;;;;;;4889606;29;20048;-76
2021/12/24 09:47:01;;;;;;;;;;;7.70;99.90;;;;;;4887289;29;20489;-76
2021/12/24 09:49:34;;;;;;;1.67;0.90;;;7.50;99.90;;;;;;4890084;29;19919;-78
2021/12/24 09:52:04;;;;;;;2.08;1.25;;;7.40;99.90;;;;;;4883484;29;20041;-79
2021/12/24 09:54:30;;;;;;;2.30;1.17;;;7.30;99.90;;;;;;4883162;29;20132;-77
2021/12/24 09:56:56;;;;;;;;;;;7.20;99.90;;;;;;4891108;29;20194;-77
2021/12/24 09:59:22;;;;;;;2.85;1.23;;;7.10;99.90;;;;;;4886593;29;19938;-82
2021/12/24 10:15:51;;;;;;;2.83;1.30;;;6.80;99.90;;;;;;4932344;29;20039;-78
2021/12/24 10:30:11;;;;;;;3.00;1.40;;;6.70;99.90;;;;;;4938176;23;20151;-83
2021/12/24 10:49:14;;;;;;;3.88;1.60;;;6.60;99.90;;;;;;5640228;23;20456;-84
2021/12/24 11:11:47;;;;;;;4.50;2.13;;;6.90;99.90;;;;;;4935005;29;20083;-82
2021/12/24 11:14:21;;;;;;;4.25;2.13;;;6.80;99.90;;;;;;5008742;23;20139;-81
2021/12/24 11:19:28;;;;;;;4.43;2.08;;;6.90;99.90;;;;;;4939514;23;20060;-81
2021/12/24 11:22:03;;;;;;;4.47;2.30;;;6.70;99.90;;;;;;4911775;29;20059;-80
2021/12/24 11:24:29;;;;;;;4.07;2.03;;;7.00;99.90;;;;;;4909414;29;20043;-78
2021/12/24 11:26:55;;;;;;;;;;;7.00;99.90;;;;;;4909635;29;20043;-85
2021/12/24 11:29:20;;;;;;;6.18;2.30;;;8.10;99.90;;;;;;4910399;29;19922;-76
2021/12/24 11:31:46;;;;;;;;;;;7.00;99.90;;;;;;4913127;29;20103;-81
2021/12/24 11:34:12;;;;;;;3.65;2.10;;;6.90;99.90;;;;;;4906967;29;19923;-79
2021/12/24 11:36:38;;;;;;;18.05;12.73;;;6.90;99.90;;;;;;4910061;29;20052;-77
2021/12/24 12:09:32;;;;;;;5.50;3.45;;;6.80;99.90;;;;;;4858444;29;20053;-83
2021/12/24 12:19:20;;;;;;;4.88;3.35;;;7.90;99.90;;;;;;4912048;29;20116;-86
2021/12/24 12:29:44;;;;;;;6.57;4.07;;;7.20;99.90;;;;;;4871383;29;20120;-84
2021/12/24 12:36:04;;;;;;;4.32;2.78;;;7.80;99.90;;;;;;4868828;29;20043;-82
2021/12/24 12:50:19;;;;;;;4.35;2.20;;;7.40;99.90;;;;;;4898534;29;20131;-81
2021/12/24 13:00:04;;;;;;;4.85;2.40;;;8.70;99.90;;;;;;4893885;29;20049;-78
2021/12/24 13:03:17;;;;;;;2.72;1.30;;;8.70;99.90;;;;;;4893841;29;20095;-83
2021/12/24 13:06:10;;;;;;;3.10;1.42;;;9.50;99.90;;;;;;4894661;29;20045;-82
2021/12/24 13:08:40;;;;;;;4.97;2.50;;;10.30;99.90;;;;;;4877663;29;20047;-78
2021/12/24 13:11:18;;;;;;;8.75;3.38;;;8.50;99.90;;;;;;4879401;29;20052;-81
2021/12/24 13:14:00;;;;;;;7.38;2.50;;;8.40;99.90;;;;;;4895257;29;20557;-82
2021/12/24 13:16:47;;;;;;;4.35;2.38;;;8.30;99.90;;;;;;4877124;29;20046;-86
2021/12/24 13:35:48;;;;;;;3.90;1.20;;;8.00;99.90;;;;;;5256440;23;20056;-84
2021/12/24 13:38:17;;;;;;;4.00;1.02;;;9.10;99.90;;;;;;4921746;29;20052;-81
2021/12/24 13:41:26;;;;;;;1.88;0.90;;;7.90;99.90;;;;;;4929477;29;20044;-82
2021/12/24 13:44:02;;;;;;;3.67;1.52;;;7.70;99.90;;;;;;4921420;29;20063;-83
2021/12/24 13:46:38;;;;;;;6.32;1.48;;;7.00;99.90;;;;;;4916125;29;20059;-83
2021/12/24 13:57:19;;;;;;;3.47;1.52;;;7.80;99.90;;;;;;5056311;23;20059;-85
2021/12/24 14:00:07;;;;;;;6.55;1.98;;;7.70;99.90;;;;;;4900011;29;20048;-80
2021/12/24 14:13:40;;;;;;;1.20;0.60;;;7.30;99.90;;;;;;4917075;29;20502;-87
2021/12/24 14:22:53;;;;;;;1.25;0.70;;;7.00;99.90;;;;;;4902887;29;20568;-81
2021/12/24 14:25:19;;;;;;;1.70;0.70;;;6.90;99.90;;;;;;4909575;23;20087;-85
2021/12/24 14:27:46;;;;;;;;;;;7.00;99.90;;;;;;4910061;29;20044;-81
2021/12/24 14:30:18;;;;;;;2.90;1.00;;;6.90;99.90;;;;;;4930132;29;19922;-81
2021/12/24 14:32:47;;;;;;;2.92;1.40;;;6.90;99.90;;;;;;4925418;29;20040;-82
2021/12/24 14:37:53;;;;;;;2.00;1.00;;;6.80;99.90;;;;;;4919997;29;20051;-81
2021/12/24 14:40:19;;;;;;;2.80;0.93;;;6.70;99.90;;;;;;4899052;29;20484;-79
2021/12/24 14:49:42;;;;;;;1.83;0.80;;;5.80;99.90;;;;;;4929781;29;20031;-77
2021/12/24 14:52:31;;;;;;;1.90;0.80;;;6.60;99.90;;;;;;4825911;29;20054;-80
2021/12/24 14:55:56;;;;;;;3.30;1.05;;;6.50;99.90;;;;;;4814499;29;20214;-81
2021/12/24 15:02:10;;;;;;;5.80;1.98;;;6.20;99.90;;;;;;4835937;29;20450;-73
2021/12/24 15:05:31;;;;;;;2.28;1.40;;;6.40;99.90;;;;;;4830776;29;20041;-79
2021/12/24 15:15:24;;;;;;;3.10;1.05;;;6.40;99.90;;;;;;5276375;23;20197;-81
2021/12/24 15:22:26;;;;;;;8.70;5.85;;;5.70;99.90;;;;;;4918747;29;20115;-80
2021/12/24 15:24:52;;;;;;;5.13;3.10;;;5.90;99.90;;;;;;4920078;29;20051;-79
2021/12/24 16:18:39;;;;;;;9.60;6.32;;;6.40;99.90;;;;;;4908117;29;20127;-76
2021/12/24 16:21:05;;;;;;;8.75;5.25;;;6.00;99.90;;;;;;4911014;29;20047;-84
2021/12/24 16:23:30;;;;;;;;;;;6.10;99.90;;;;;;4911054;29;20044;-80
2021/12/24 16:25:56;;;;;;;13.98;7.35;;;6.10;99.90;;;;;;4907412;29;20367;-77
2021/12/24 16:28:21;;;;;;;;;;;6.10;99.90;;;;;;4910737;29;20122;-82
2021/12/24 16:30:47;;;;;;;7.80;3.50;;;6.10;99.90;;;;;;4906967;29;20013;-77
2021/12/24 16:33:13;;;;;;;;;;;6.10;99.90;;;;;;4905504;29;20085;-76
2021/12/24 16:35:38;;;;;;;6.55;3.00;;;6.00;99.90;;;;;;4910867;29;19945;-79
2021/12/24 16:38:05;;;;;;;;;;;6.00;99.90;;;;;;4912467;29;20546;-86
2021/12/24 16:40:33;;;;;;;8.90;4.15;;;6.00;99.90;;;;;;4907338;29;19930;-82
2021/12/24 16:43:07;;;;;;;7.90;4.10;;;6.00;99.90;;;;;;4911449;29;20059;-83
2021/12/24 16:45:33;;;;;;;10.10;4.38;;;6.00;99.90;;;;;;4908601;29;20040;-79
2021/12/24 16:48:00;;;;;;;;;;;6.50;99.90;;;;;;4907431;29;20051;-78
2021/12/24 16:50:26;;;;;;;7.60;4.30;;;6.00;99.90;;;;;;4912634;29;20370;-82
2021/12/24 16:52:53;;;;;;;8.02;4.00;;;6.00;99.90;;;;;;4905196;29;20052;-83
2021/12/24 16:55:23;;;;;;;5.05;2.90;;;6.00;99.90;;;;;;4925933;29;20044;-92
2021/12/24 16:57:49;;;;;;;5.07;2.95;;;6.10;99.90;;;;;;4913195;29;20188;-88
2021/12/24 17:00:17;;;;;;;6.18;2.92;;;6.10;99.90;;;;;;4915351;29;20619;-85
2021/12/24 17:02:49;;;;;;;12.88;8.20;;;6.00;99.90;;;;;;4918835;29;20047;-86
2021/12/24 17:05:17;;;;;;;18.98;13.88;;;6.50;99.90;;;;;;4924473;29;20051;-83
2021/12/24 17:07:52;;;;;;;20.13;11.57;;;6.00;99.90;;;;;;4909392;29;20043;-78
2021/12/24 17:10:19;;;;;;;12.50;6.88;;;6.00;99.90;;;;;;4912165;29;20043;-77
2021/12/24 17:12:46;;;;;;;7.75;3.25;;;6.20;99.90;;;;;;4905673;29;20047;-81
2021/12/24 17:15:13;;;;;;;6.90;2.47;;;6.00;99.90;;;;;;4910490;29;20052;-80
2021/12/24 17:17:39;;;;;;;8.65;2.50;;;5.90;99.90;;;;;;4907095;29;20080;-78
2021/12/24 17:20:11;;;;;;;5.18;2.25;;;5.80;99.90;;;;;;4911385;29;20083;-80
2021/12/24 17:22:37;;;;;;;4.68;2.00;;;5.80;99.90;;;;;;4905677;29;20056;-77
2021/12/24 17:25:20;;;;;;;12.20;4.65;;;5.70;99.90;;;;;;4910210;29;20054;-80
2021/12/24 17:27:47;;;;;;;12.02;6.47;;;5.60;99.90;;;;;;4906124;29;20067;-77
2021/12/24 17:30:16;;;;;;;11.25;6.40;;;5.50;99.90;;;;;;4909666;29;20040;-83
2021/12/24 17:32:51;;;;;;;14.07;6.63;;;5.40;99.90;;;;;;4910112;29;20075;-79
2021/12/24 17:35:18;;;;;;;24.83;10.15;;;5.20;99.90;;;;;;4905417;29;20504;-78
2021/12/24 17:37:43;;;;;;;14.55;6.70;;;5.10;99.90;;;;;;4915687;29;20050;-77
2021/12/24 17:40:10;;;;;;;;;;;5.00;99.90;;;;;;4924107;29;20035;-75
2021/12/24 17:42:36;;;;;;;11.23;6.33;;;4.80;99.90;;;;;;4911780;29;19930;-77
2021/12/24 17:45:03;;;;;;;;;;;4.80;99.90;;;;;;4909525;29;20651;-76
2021/12/24 17:47:29;;;;;;;;;;;5.20;99.90;;;;;;4910271;29;19922;-80
2021/12/24 17:49:57;;;;;;;7.60;3.40;;;4.50;99.90;;;;;;4909372;29;20019;-78
2021/12/24 17:52:23;;;;;;;7.82;3.55;;;4.50;99.90;;;;;;4908998;29;20146;-77
2021/12/24 17:54:48;;;;;;;;;;;4.40;99.90;;;;;;4911703;29;20148;-81
2021/12/24 17:57:14;;;;;;;6.88;3.53;;;4.10;99.90;;;;;;4911265;29;19934;-80
2021/12/24 17:59:40;;;;;;;8.65;4.20;;;4.00;99.90;;;;;;4918063;23;20052;-80
2021/12/24 18:02:06;;;;;;;;;;;3.80;99.90;;;;;;4918460;29;20036;-78
2021/12/24 18:04:47;;;;;;;9.15;4.80;;;3.70;99.90;;;;;;4917362;29;19957;-79
2021/12/24 18:09:49;;;;;;;10.43;4.38;;;3.50;99.90;;;;;;5060076;23;20571;-84
2021/12/24 18:12:31;;;;;;;10.90;4.78;;;4.30;99.90;;;;;;4905753;29;20483;-80
2021/12/24 18:17:41;;;;;;;9.55;5.07;;;3.30;99.90;;;;;;4937793;23;20496;-86
2021/12/24 18:20:50;;;;;;;11.38;4.80;;;3.20;99.90;;;;;;4913920;29;20044;-78
2021/12/24 18:27:00;;;;;;;11.57;6.32;;;2.80;99.90;;;;;;4867466;29;20044;-78
2021/12/24 18:29:26;;;;;;;;;;;3.20;99.90;;;;;;4872660;29;20057;-79
2021/12/24 18:38:38;;;;;;;8.20;4.35;;;1.70;99.90;;;;;;4922682;29;20127;-83
2021/12/24 18:58:22;;;;;;;11.40;5.40;;;3.10;99.90;;;;;;4978511;23;20054;-81
2021/12/24 19:01:14;;;;;;;11.70;5.47;;;2.70;99.90;;;;;;4882783;29;20043;-79
2021/12/24 19:06:38;;;;;;;10.15;5.18;;;3.70;99.90;;;;;;4904964;23;20146;-81
2021/12/24 19:09:05;;;;;;;;;;;2.90;99.90;;;;;;4886125;23;20106;-89
2021/12/24 19:18:18;;;;;;;13.48;8.38;;;2.90;99.90;;;;;;4915297;23;20067;-89
2021/12/24 19:20:44;;;;;;;8.52;4.82;;;2.90;99.90;;;;;;4895940;29;20404;-81
2021/12/24 19:23:10;;;;;;;9.68;5.35;;;3.80;99.90;;;;;;4998454;23;20106;-87
2021/12/24 19:25:36;;;;;;;;;;;2.80;99.90;;;;;;4916876;29;20139;-89
2021/12/24 19:28:03;;;;;;;12.63;5.55;;;3.30;99.90;;;;;;4916981;29;19930;-82
2021/12/24 19:30:52;;;;;;;9.65;4.70;;;2.80;99.90;;;;;;4968632;23;20248;-85
2021/12/24 19:33:18;;;;;;;8.20;4.18;;;3.10;99.90;;;;;;4920740;29;20090;-79
2021/12/24 19:35:51;;;;;;;;;;;3.40;99.90;;;;;;4920580;29;20086;-90
2021/12/24 19:38:16;;;;;;;10.30;5.95;;;2.70;99.90;;;;;;4935488;29;19922;-87
2021/12/24 19:40:42;;;;;;;;;;;2.60;99.90;;;;;;4921296;29;20058;-79
2021/12/24 19:55:03;;;;;;;8.90;4.18;;;2.10;99.90;;;;;;5497161;23;20055;-79
2021/12/24 20:07:25;;;;;;;8.32;4.55;;;2.00;99.90;;;;;;5236271;23;20144;-81
2021/12/24 20:17:34;;;;;;;7.32;3.42;;;1.70;99.90;;;;;;4912882;29;20090;-81
2021/12/24 20:23:59;;;;;;;9.18;3.65;;;1.30;99.90;;;;;;4915209;29;20090;-81
2021/12/24 20:26:52;;;;;;;;;;;1.60;99.90;;;;;;4899511;29;20435;-84
2021/12/24 20:36:58;;;;;;;6.43;3.17;;;0.90;99.90;;;;;;4913546;29;20131;-82
2021/12/24 20:39:54;;;;;;;6.30;2.78;;;1.30;99.90;;;;;;4895472;29;20060;-83
2021/12/24 21:04:53;;;;;;;7.05;2.85;;;0.50;99.90;;;;;;4855355;29;20478;-81
2021/12/24 21:13:58;;;;;;;5.20;2.70;;;0.80;99.90;;;;;;5840289;23;20134;-80
2021/12/24 21:16:24;;;;;;;;;;;1.80;99.90;;;;;;4916152;29;20160;-76
2021/12/24 21:18:51;;;;;;;4.40;2.30;;;1.90;99.90;;;;;;4898403;29;20066;-78
2021/12/24 21:29:43;;;;;;;6.10;2.30;;;0.30;99.90;;;;;;4907284;29;19974;-78
2021/12/24 21:32:13;;;;;;;6.28;3.38;;;1.30;99.90;;;;;;4904046;29;20124;-82
2021/12/24 21:34:54;;;;;;;7.28;2.60;;;1.00;99.90;;;;;;4898031;29;20441;-78
2021/12/24 21:41:44;;;;;;;6.43;2.72;;;1.40;99.90;;;;;;4857075;29;20086;-76
2021/12/24 21:51:45;;;;;;;8.35;3.35;;;1.00;99.90;;;;;;4896456;29;20076;-78
2021/12/24 22:01:35;;;;;;;5.70;2.20;;;0.20;99.90;;;;;;4856238;29;20525;-77
2021/12/24 22:09:31;;;;;;;4.97;1.80;;;0.50;99.90;;;;;;4897449;29;19928;-77
2021/12/24 22:12:03;;;;;;;;;;;0.40;99.90;;;;;;4905934;29;20064;-77
2021/12/24 22:26:00;;;;;;;10.50;3.75;;;0.20;99.90;;;;;;4915803;29;20079;-77
2021/12/24 22:35:28;;;;;;;8.05;3.72;;;0.10;99.90;;;;;;5118011;23;20063;-75
2021/12/24 22:55:58;;;;;;;22.58;11.23;;;0.00;99.90;;;;;;4908264;29;20083;-76
2021/12/24 22:58:24;;;;;;;;;;;-0.20;99.90;;;;;;4887727;29;20428;-76
2021/12/24 23:00:59;;;;;;;10.10;5.45;;;-0.10;99.90;;;;;;4879478;29;19924;-75
2021/12/24 23:03:53;;;;;;;12.17;5.10;;;-0.10;99.90;;;;;;4877019;29;20048;-75
2021/12/24 23:06:34;;;;;;;9.57;3.28;;;-0.10;99.90;;;;;;4877360;29;20049;-76
2021/12/24 23:09:03;;;;;;;7.70;3.38;;;-0.20;99.90;;;;;;4895489;29;20071;-76